Zeigler, IL (62999)

11:17 PM CST on December 15, 2019 (GMT -0600)
New Bush | | Change Station
Active Advisory: Winter Weather Advisory

Elev 395 ft 37.88 °N, 89.14 °W | Updated 3 seconds ago

Overcast
Overcast
33.1 °F
Feels Like 33 °F
N
2
Wind Variable Wind from East
Gusts 2.0 mph

Today
High -- | Low -- °F
--% Chance of Precip.
Yesterday
High -- | Low -- °F
Precip. -- in
Pressure 29.98 in
Visibility 3.0 miles
Clouds Overcast 400 ft
Windchill 33 °F
Dew Point 32 °F
Humidity 96%
Rainfall 0.00 in
Snow Depth Not available.
7:04 AM 4:37 PM
Waning Gibbous, 82% visible
METAR KMWA 160455Z AUTO 02006KT 3SM BR OVC004 00/00 A2998 RMK AO2 T00000000
Pressure 29.98 in
Visibility 3.0 miles
Clouds Overcast 400 ft
Windchill 33 °F
Dew Point 32 °F
Humidity 96%
Rainfall 0.00 in
Snow Depth Not available.
7:04 AM 4:37 PM
Waning Gibbous, 82% visible
METAR KMWA 160455Z AUTO 02006KT 3SM BR OVC004 00/00 A2998 RMK AO2 T00000000

Get Your Daily Forecast Email!

Thanks for signing up!

Be on the lookout for a verification email in your inbox.

You'll start receiving severe weather alerts in your inbox..

×

10-Day Weather Forecast

Almanac

Astronomy

Dec. 15, 2019 Rise Set
Actual Time
Civil Twilight
Nautical Twilight
Astronomical Twilight
Moon
Length of Visible Light
Length of Day
Tomorrow will be .
, % of the Moon is Illuminated

Today's Extremes

State Highs State Lows

Community

WunderPhotos

Category 6

Welcome to Category 6. This is the collective home for Weather Underground's featured writeups by Dr. Jeff Masters (right), Bob Henson (left), Chris Burt, and other regular contributors.

Nearby

Air Quality

  Air Quality AQ Index Pollutant
Not available.

Snow Depth

Station Depth Elevation

Earthquake Activity

City Distance Mag. Time & Date
Minimum magnitude displayed is 2.5.

Coastal Water Temperatures

Place Temperature

Stations

Nearby Weather Stations

Station Location Temp. Windchill Dew Point Humidity Wind Precip. Elev Updated Type
                   

Watches & Warnings

Winter Weather Advisory
Issued: 10:28 PM CST Dec. 15, 2019 – National Weather Service

... Winter Weather Advisory remains in effect until noon CST
Monday...

* what... light freezing drizzle is expected to continue overnight
and into Monday morning.

* Where... the advisory includes portions of southeast Missouri
and southern Illinois, generally along and north of a line
from Van Buren Missouri to Anna and Mt. Carmel Illinois.

* When... through noon CST Monday.

* Impacts... plan on slippery Road conditions, primarily on
bridges and overpasses. Bridges tend to freeze first because of
lack of ground warmth beneath them.

Precautionary/preparedness actions...

Slow down and use caution while traveling.

The latest Road conditions for the state you are calling from can
be obtained by calling 5 1 1.